sensor_id;sensor_type;location;lat;lon;timestamp;pressure;altitude;pressure_sealevel;temperature;humidity
74921;BME280;63483;47.384;8.860;2023-04-03T00:01:27;94914.03;;;3.69;53.97
74921;BME280;63483;47.384;8.860;2023-04-03T00:03:53;94909.88;;;3.88;53.46
74921;BME280;63483;47.384;8.860;2023-04-03T00:06:19;94906.00;;;3.72;53.50
74921;BME280;63483;47.384;8.860;2023-04-03T00:08:44;94907.88;;;3.61;53.63
74921;BME280;63483;47.384;8.860;2023-04-03T00:11:10;94911.66;;;3.57;54.27
74921;BME280;63483;47.384;8.860;2023-04-03T00:13:36;94911.00;;;3.64;53.99
74921;BME280;63483;47.384;8.860;2023-04-03T00:16:01;94907.41;;;3.86;53.00
74921;BME280;63483;47.384;8.860;2023-04-03T00:18:28;94907.28;;;3.88;52.73
74921;BME280;63483;47.384;8.860;2023-04-03T00:20:54;94908.84;;;4.00;52.58
74921;BME280;63483;47.384;8.860;2023-04-03T00:23:19;94903.16;;;3.76;52.77
74921;BME280;63483;47.384;8.860;2023-04-03T00:25:44;94914.38;;;3.55;53.69
74921;BME280;63483;47.384;8.860;2023-04-03T00:28:10;94907.63;;;3.64;53.25
74921;BME280;63483;47.384;8.860;2023-04-03T00:30:35;94920.50;;;3.85;52.94
74921;BME280;63483;47.384;8.860;2023-04-03T00:33:01;94918.63;;;3.87;53.11
74921;BME280;63483;47.384;8.860;2023-04-03T00:35:27;94911.09;;;3.84;53.26
74921;BME280;63483;47.384;8.860;2023-04-03T00:37:54;94915.91;;;3.88;53.11
74921;BME280;63483;47.384;8.860;2023-04-03T00:40:22;94914.91;;;3.80;53.25
74921;BME280;63483;47.384;8.860;2023-04-03T00:42:53;94916.16;;;3.54;53.61
74921;BME280;63483;47.384;8.860;2023-04-03T00:45:24;94917.09;;;3.44;53.50
74921;BME280;63483;47.384;8.860;2023-04-03T00:47:50;94922.31;;;3.11;54.57
74921;BME280;63483;47.384;8.860;2023-04-03T00:50:16;94906.75;;;3.32;54.14
74921;BME280;63483;47.384;8.860;2023-04-03T00:52:42;94911.91;;;3.01;54.37
74921;BME280;63483;47.384;8.860;2023-04-03T00:55:11;94917.75;;;3.03;54.86
74921;BME280;63483;47.384;8.860;2023-04-03T00:57:37;94915.31;;;3.23;54.42
74921;BME280;63483;47.384;8.860;2023-04-03T01:00:08;94913.63;;;3.33;53.23
74921;BME280;63483;47.384;8.860;2023-04-03T01:02:34;94911.53;;;2.53;54.82
74921;BME280;63483;47.384;8.860;2023-04-03T01:05:00;94918.84;;;2.47;53.79
74921;BME280;63483;47.384;8.860;2023-04-03T01:07:29;94923.28;;;2.57;52.47
74921;BME280;63483;47.384;8.860;2023-04-03T01:10:01;94915.50;;;2.24;55.07
74921;BME280;63483;47.384;8.860;2023-04-03T01:14:59;94915.66;;;2.55;52.89
74921;BME280;63483;47.384;8.860;2023-04-03T01:17:31;94924.19;;;2.35;53.35
74921;BME280;63483;47.384;8.860;2023-04-03T01:23:12;94921.50;;;2.25;54.18
74921;BME280;63483;47.384;8.860;2023-04-03T01:25:44;94928.63;;;2.32;54.78
74921;BME280;63483;47.384;8.860;2023-04-03T01:28:13;94925.47;;;2.40;53.28
74921;BME280;63483;47.384;8.860;2023-04-03T01:33:36;94927.44;;;2.37;53.32
74921;BME280;63483;47.384;8.860;2023-04-03T01:36:03;94932.00;;;2.12;51.85
74921;BME280;63483;47.384;8.860;2023-04-03T01:38:28;94935.84;;;2.18;49.37
74921;BME280;63483;47.384;8.860;2023-04-03T01:40:53;94932.91;;;2.22;49.89
74921;BME280;63483;47.384;8.860;2023-04-03T01:43:19;94928.69;;;2.10;50.20
74921;BME280;63483;47.384;8.860;2023-04-03T01:45:44;94933.13;;;2.19;53.34
74921;BME280;63483;47.384;8.860;2023-04-03T01:48:11;94937.63;;;2.06;52.09
74921;BME280;63483;47.384;8.860;2023-04-03T01:50:37;94938.22;;;1.98;50.87
74921;BME280;63483;47.384;8.860;2023-04-03T01:53:02;94941.38;;;2.13;53.26
74921;BME280;63483;47.384;8.860;2023-04-03T01:55:28;94943.03;;;2.03;52.76
74921;BME280;63483;47.384;8.860;2023-04-03T01:57:53;94938.34;;;2.08;53.05
74921;BME280;63483;47.384;8.860;2023-04-03T02:00:18;94934.34;;;2.04;52.12
74921;BME280;63483;47.384;8.860;2023-04-03T02:02:44;94937.13;;;2.23;52.51
74921;BME280;63483;47.384;8.860;2023-04-03T02:05:09;94935.50;;;2.22;53.43
74921;BME280;63483;47.384;8.860;2023-04-03T02:07:35;94936.47;;;1.99;53.66
74921;BME280;63483;47.384;8.860;2023-04-03T02:10:00;94941.47;;;2.23;53.62
74921;BME280;63483;47.384;8.860;2023-04-03T02:12:26;94945.06;;;1.76;54.12
74921;BME280;63483;47.384;8.860;2023-04-03T02:14:51;94943.59;;;1.38;54.92
74921;BME280;63483;47.384;8.860;2023-04-03T02:17:16;94952.19;;;1.61;54.59
74921;BME280;63483;47.384;8.860;2023-04-03T02:19:42;94958.72;;;1.20;56.36
74921;BME280;63483;47.384;8.860;2023-04-03T02:22:07;94947.16;;;1.49;54.76
74921;BME280;63483;47.384;8.860;2023-04-03T02:24:32;94958.78;;;1.54;54.42
74921;BME280;63483;47.384;8.860;2023-04-03T02:26:58;94947.75;;;1.52;53.88
74921;BME280;63483;47.384;8.860;2023-04-03T02:29:23;94945.63;;;1.46;54.01
74921;BME280;63483;47.384;8.860;2023-04-03T02:31:49;94952.44;;;1.47;54.22
74921;BME280;63483;47.384;8.860;2023-04-03T02:34:14;94954.31;;;1.56;54.32
74921;BME280;63483;47.384;8.860;2023-04-03T02:36:40;94953.38;;;1.46;54.44
74921;BME280;63483;47.384;8.860;2023-04-03T02:39:05;94953.63;;;1.88;53.45
74921;BME280;63483;47.384;8.860;2023-04-03T02:41:31;94960.31;;;1.91;52.68
74921;BME280;63483;47.384;8.860;2023-04-03T02:44:03;94959.00;;;1.96;52.61
74921;BME280;63483;47.384;8.860;2023-04-03T02:46:29;94961.94;;;1.92;52.33
74921;BME280;63483;47.384;8.860;2023-04-03T02:48:54;94960.19;;;1.92;52.82
74921;BME280;63483;47.384;8.860;2023-04-03T02:51:20;94956.63;;;2.16;51.53
74921;BME280;63483;47.384;8.860;2023-04-03T02:53:45;94954.28;;;2.24;51.40
74921;BME280;63483;47.384;8.860;2023-04-03T02:56:10;94940.91;;;2.08;50.95
74921;BME280;63483;47.384;8.860;2023-04-03T02:58:36;94942.81;;;1.94;51.46
74921;BME280;63483;47.384;8.860;2023-04-03T03:01:01;94957.47;;;2.17;49.28
74921;BME280;63483;47.384;8.860;2023-04-03T03:03:27;94949.03;;;2.03;50.18
74921;BME280;63483;47.384;8.860;2023-04-03T03:06:06;94957.84;;;2.12;49.88
74921;BME280;63483;47.384;8.860;2023-04-03T03:08:32;94958.31;;;1.94;50.73
74921;BME280;63483;47.384;8.860;2023-04-03T03:10:58;94962.53;;;1.61;51.33
74921;BME280;63483;47.384;8.860;2023-04-03T03:13:24;94956.06;;;1.67;50.98
74921;BME280;63483;47.384;8.860;2023-04-03T03:15:49;94962.53;;;1.50;51.54
74921;BME280;63483;47.384;8.860;2023-04-03T03:18:15;94968.66;;;1.60;51.11
74921;BME280;63483;47.384;8.860;2023-04-03T03:20:40;94960.19;;;1.70;51.58
74921;BME280;63483;47.384;8.860;2023-04-03T03:23:06;94966.31;;;1.80;50.68
74921;BME280;63483;47.384;8.860;2023-04-03T03:25:31;94969.25;;;1.17;52.61
74921;BME280;63483;47.384;8.860;2023-04-03T03:27:56;94962.91;;;1.21;52.44
74921;BME280;63483;47.384;8.860;2023-04-03T03:30:21;94970.53;;;1.12;52.38
74921;BME280;63483;47.384;8.860;2023-04-03T03:32:47;94961.38;;;1.07;52.05
74921;BME280;63483;47.384;8.860;2023-04-03T03:35:12;94965.38;;;0.76;52.29
74921;BME280;63483;47.384;8.860;2023-04-03T03:37:38;94959.31;;;0.88;52.41
74921;BME280;63483;47.384;8.860;2023-04-03T03:40:03;94966.88;;;1.03;48.40
74921;BME280;63483;47.384;8.860;2023-04-03T03:42:28;94957.00;;;0.97;50.39
74921;BME280;63483;47.384;8.860;2023-04-03T03:44:54;94960.25;;;0.87;46.17
74921;BME280;63483;47.384;8.860;2023-04-03T03:47:20;94966.00;;;0.91;47.84
74921;BME280;63483;47.384;8.860;2023-04-03T03:49:45;94962.31;;;0.71;49.45
74921;BME280;63483;47.384;8.860;2023-04-03T03:52:10;94969.88;;;0.85;49.15
74921;BME280;63483;47.384;8.860;2023-04-03T03:54:36;94965.72;;;0.71;49.27
74921;BME280;63483;47.384;8.860;2023-04-03T03:57:02;94958.97;;;0.82;45.15
74921;BME280;63483;47.384;8.860;2023-04-03T03:59:28;94969.63;;;0.88;48.47
74921;BME280;63483;47.384;8.860;2023-04-03T04:01:53;94973.88;;;1.01;49.52
74921;BME280;63483;47.384;8.860;2023-04-03T04:04:18;94970.59;;;0.99;50.18
74921;BME280;63483;47.384;8.860;2023-04-03T04:06:44;94977.88;;;1.05;48.47
74921;BME280;63483;47.384;8.860;2023-04-03T04:09:10;94976.34;;;1.02;50.05
74921;BME280;63483;47.384;8.860;2023-04-03T04:11:35;94980.00;;;1.00;49.72
74921;BME280;63483;47.384;8.860;2023-04-03T04:14:00;94981.00;;;0.86;48.33
74921;BME280;63483;47.384;8.860;2023-04-03T04:16:26;94984.19;;;0.89;45.23
74921;BME280;63483;47.384;8.860;2023-04-03T04:18:51;94991.69;;;0.93;47.38
74921;BME280;63483;47.384;8.860;2023-04-03T04:21:16;94978.00;;;0.68;45.93
74921;BME280;63483;47.384;8.860;2023-04-03T04:23:42;94986.47;;;0.70;48.21
74921;BME280;63483;47.384;8.860;2023-04-03T04:26:07;94978.75;;;0.81;47.41
74921;BME280;63483;47.384;8.860;2023-04-03T04:28:32;94991.44;;;0.60;46.79
74921;BME280;63483;47.384;8.860;2023-04-03T04:30:57;94986.78;;;0.41;48.10
74921;BME280;63483;47.384;8.860;2023-04-03T04:33:23;94994.81;;;0.61;47.40
74921;BME280;63483;47.384;8.860;2023-04-03T04:35:48;94986.94;;;0.51;47.09
74921;BME280;63483;47.384;8.860;2023-04-03T04:38:14;94986.28;;;0.60;47.89
74921;BME280;63483;47.384;8.860;2023-04-03T04:40:39;94983.50;;;0.39;49.24
74921;BME280;63483;47.384;8.860;2023-04-03T04:43:05;94982.31;;;0.06;49.71
74921;BME280;63483;47.384;8.860;2023-04-03T04:45:31;94987.13;;;0.24;50.36
74921;BME280;63483;47.384;8.860;2023-04-03T04:47:56;94981.84;;;0.38;49.61
74921;BME280;63483;47.384;8.860;2023-04-03T04:50:22;94976.56;;;0.15;49.88
74921;BME280;63483;47.384;8.860;2023-04-03T04:52:47;94982.97;;;-0.03;51.26
74921;BME280;63483;47.384;8.860;2023-04-03T04:55:12;94987.75;;;-0.23;51.44
74921;BME280;63483;47.384;8.860;2023-04-03T04:57:38;94987.47;;;0.06;50.80
74921;BME280;63483;47.384;8.860;2023-04-03T05:00:04;94994.84;;;-0.14;50.04
74921;BME280;63483;47.384;8.860;2023-04-03T05:02:30;94984.00;;;-0.06;49.74
74921;BME280;63483;47.384;8.860;2023-04-03T05:04:56;94990.63;;;-0.15;50.71
74921;BME280;63483;47.384;8.860;2023-04-03T05:07:21;94987.63;;;-0.08;50.51
74921;BME280;63483;47.384;8.860;2023-04-03T05:09:47;94983.97;;;0.07;49.94
74921;BME280;63483;47.384;8.860;2023-04-03T05:12:12;94984.19;;;0.17;49.82
74921;BME280;63483;47.384;8.860;2023-04-03T05:14:38;94986.28;;;-0.01;50.45
74921;BME280;63483;47.384;8.860;2023-04-03T05:17:03;94991.25;;;-0.24;50.71
74921;BME280;63483;47.384;8.860;2023-04-03T05:19:28;94983.03;;;-0.29;51.00
74921;BME280;63483;47.384;8.860;2023-04-03T05:21:54;94990.22;;;-0.34;51.17
74921;BME280;63483;47.384;8.860;2023-04-03T05:24:20;94994.63;;;-0.10;51.26
74921;BME280;63483;47.384;8.860;2023-04-03T05:26:46;94995.47;;;-0.10;50.88
74921;BME280;63483;47.384;8.860;2023-04-03T05:29:12;94999.38;;;-0.04;50.33
74921;BME280;63483;47.384;8.860;2023-04-03T05:31:37;94997.59;;;0.09;49.87
74921;BME280;63483;47.384;8.860;2023-04-03T05:34:02;94997.28;;;0.14;49.97
74921;BME280;63483;47.384;8.860;2023-04-03T05:36:28;94999.41;;;0.20;49.85
74921;BME280;63483;47.384;8.860;2023-04-03T05:38:53;94995.50;;;0.14;49.97
74921;BME280;63483;47.384;8.860;2023-04-03T05:41:21;95000.72;;;-0.11;50.37
74921;BME280;63483;47.384;8.860;2023-04-03T05:43:47;95006.25;;;-0.18;50.08
74921;BME280;63483;47.384;8.860;2023-04-03T05:46:15;95010.81;;;-0.08;50.98
74921;BME280;63483;47.384;8.860;2023-04-03T05:48:41;95004.00;;;-0.09;50.04
74921;BME280;63483;47.384;8.860;2023-04-03T05:51:09;95008.91;;;0.19;49.27
74921;BME280;63483;47.384;8.860;2023-04-03T05:53:38;95006.84;;;0.12;50.73
74921;BME280;63483;47.384;8.860;2023-04-03T05:56:04;95007.47;;;0.15;49.73
74921;BME280;63483;47.384;8.860;2023-04-03T05:58:29;95013.22;;;0.06;49.98
74921;BME280;63483;47.384;8.860;2023-04-03T06:00:54;95002.75;;;0.09;53.80
74921;BME280;63483;47.384;8.860;2023-04-03T06:03:20;95002.22;;;0.04;47.33
74921;BME280;63483;47.384;8.860;2023-04-03T06:05:45;95010.53;;;0.20;48.79
74921;BME280;63483;47.384;8.860;2023-04-03T06:08:11;95005.88;;;-0.11;47.46
74921;BME280;63483;47.384;8.860;2023-04-03T06:10:37;95015.25;;;-0.62;50.54
74921;BME280;63483;47.384;8.860;2023-04-03T06:13:03;95011.84;;;-0.75;49.89
74921;BME280;63483;47.384;8.860;2023-04-03T06:15:28;95006.91;;;-0.40;50.56
74921;BME280;63483;47.384;8.860;2023-04-03T06:17:54;95014.94;;;-0.44;49.67
74921;BME280;63483;47.384;8.860;2023-04-03T06:20:19;95016.16;;;-0.76;51.18
74921;BME280;63483;47.384;8.860;2023-04-03T06:22:44;95020.47;;;-0.76;52.06
74921;BME280;63483;47.384;8.860;2023-04-03T06:25:11;95016.41;;;-0.53;51.94
74921;BME280;63483;47.384;8.860;2023-04-03T06:27:37;95023.53;;;-0.97;52.15
74921;BME280;63483;47.384;8.860;2023-04-03T06:30:04;95025.38;;;-0.99;52.03
74921;BME280;63483;47.384;8.860;2023-04-03T06:32:29;95029.09;;;-0.77;50.17
74921;BME280;63483;47.384;8.860;2023-04-03T06:34:55;95029.63;;;-0.59;49.42
74921;BME280;63483;47.384;8.860;2023-04-03T06:37:22;95027.38;;;-0.77;50.34
74921;BME280;63483;47.384;8.860;2023-04-03T06:39:51;95042.41;;;-0.58;50.06
74921;BME280;63483;47.384;8.860;2023-04-03T06:42:16;95033.81;;;-0.97;50.45
74921;BME280;63483;47.384;8.860;2023-04-03T06:44:41;95037.75;;;-0.78;51.48
74921;BME280;63483;47.384;8.860;2023-04-03T06:47:10;95033.97;;;-0.60;47.03
74921;BME280;63483;47.384;8.860;2023-04-03T06:49:36;95038.28;;;-0.47;48.95
74921;BME280;63483;47.384;8.860;2023-04-03T06:52:02;95030.28;;;-0.56;47.77
74921;BME280;63483;47.384;8.860;2023-04-03T06:54:27;95029.25;;;-1.06;51.07
74921;BME280;63483;47.384;8.860;2023-04-03T06:56:53;95024.38;;;-1.38;51.48
74921;BME280;63483;47.384;8.860;2023-04-03T06:59:18;95035.13;;;-1.31;50.26
74921;BME280;63483;47.384;8.860;2023-04-03T07:01:44;95026.28;;;-1.55;53.34
74921;BME280;63483;47.384;8.860;2023-04-03T07:04:10;95031.06;;;-1.08;52.15
74921;BME280;63483;47.384;8.860;2023-04-03T07:06:35;95030.13;;;-0.93;49.03
74921;BME280;63483;47.384;8.860;2023-04-03T07:09:01;95030.59;;;-1.28;52.05
74921;BME280;63483;47.384;8.860;2023-04-03T07:11:27;95033.00;;;-1.39;53.15
74921;BME280;63483;47.384;8.860;2023-04-03T07:13:53;95031.00;;;-1.34;52.13
74921;BME280;63483;47.384;8.860;2023-04-03T07:16:18;95036.97;;;-1.75;55.09
74921;BME280;63483;47.384;8.860;2023-04-03T07:18:44;95031.19;;;-1.37;56.23
74921;BME280;63483;47.384;8.860;2023-04-03T07:21:10;95048.44;;;-0.85;51.04
74921;BME280;63483;47.384;8.860;2023-04-03T07:23:36;95035.16;;;-0.91;51.54
74921;BME280;63483;47.384;8.860;2023-04-03T07:26:01;95038.75;;;-0.94;51.74
74921;BME280;63483;47.384;8.860;2023-04-03T07:28:27;95047.19;;;-0.92;52.18
74921;BME280;63483;47.384;8.860;2023-04-03T07:31:03;95037.16;;;-1.09;50.51
74921;BME280;63483;47.384;8.860;2023-04-03T07:33:30;95043.50;;;-0.88;51.21
74921;BME280;63483;47.384;8.860;2023-04-03T07:35:56;95043.28;;;-0.85;48.64
74921;BME280;63483;47.384;8.860;2023-04-03T07:38:21;95047.00;;;-0.89;51.75
74921;BME280;63483;47.384;8.860;2023-04-03T07:40:48;95041.91;;;-0.63;49.41
74921;BME280;63483;47.384;8.860;2023-04-03T07:43:15;95043.56;;;-0.62;48.08
74921;BME280;63483;47.384;8.860;2023-04-03T07:45:41;95049.34;;;-0.45;49.98
74921;BME280;63483;47.384;8.860;2023-04-03T07:48:07;95042.84;;;-0.38;50.67
74921;BME280;63483;47.384;8.860;2023-04-03T07:50:32;95048.22;;;-0.41;49.62
74921;BME280;63483;47.384;8.860;2023-04-03T07:52:58;95051.66;;;0.22;48.75
74921;BME280;63483;47.384;8.860;2023-04-03T07:55:24;95042.72;;;0.02;49.92
74921;BME280;63483;47.384;8.860;2023-04-03T07:57:49;95045.63;;;-0.16;49.73
74921;BME280;63483;47.384;8.860;2023-04-03T08:00:16;95041.50;;;0.08;47.99
74921;BME280;63483;47.384;8.860;2023-04-03T08:02:43;95054.44;;;0.06;49.26
74921;BME280;63483;47.384;8.860;2023-04-03T08:05:09;95044.78;;;-0.03;48.85
74921;BME280;63483;47.384;8.860;2023-04-03T08:07:37;95046.72;;;0.19;48.89
74921;BME280;63483;47.384;8.860;2023-04-03T08:10:02;95057.31;;;0.27;45.49
74921;BME280;63483;47.384;8.860;2023-04-03T08:12:28;95054.88;;;-0.00;48.81
74921;BME280;63483;47.384;8.860;2023-04-03T08:14:55;95048.78;;;0.01;48.81
74921;BME280;63483;47.384;8.860;2023-04-03T08:17:20;95044.13;;;0.06;49.54
74921;BME280;63483;47.384;8.860;2023-04-03T08:19:46;95060.22;;;0.23;48.50
74921;BME280;63483;47.384;8.860;2023-04-03T08:22:12;95049.38;;;0.30;48.44
74921;BME280;63483;47.384;8.860;2023-04-03T08:24:37;95053.94;;;0.14;48.66
74921;BME280;63483;47.384;8.860;2023-04-03T08:27:02;95050.34;;;-0.09;49.21
74921;BME280;63483;47.384;8.860;2023-04-03T08:29:28;95050.34;;;-0.48;50.50
74921;BME280;63483;47.384;8.860;2023-04-03T08:31:53;95044.06;;;-0.18;50.64
74921;BME280;63483;47.384;8.860;2023-04-03T08:34:19;95051.16;;;-0.60;50.77
74921;BME280;63483;47.384;8.860;2023-04-03T08:36:45;95059.84;;;-0.48;49.86
74921;BME280;63483;47.384;8.860;2023-04-03T08:39:11;95059.00;;;-0.36;50.75
74921;BME280;63483;47.384;8.860;2023-04-03T08:41:39;95049.75;;;-0.13;49.33
74921;BME280;63483;47.384;8.860;2023-04-03T08:47:02;95056.78;;;-0.68;51.19
74921;BME280;63483;47.384;8.860;2023-04-03T08:49:31;95062.34;;;-0.74;49.56
74921;BME280;63483;47.384;8.860;2023-04-03T08:51:59;95072.38;;;-0.44;50.38
74921;BME280;63483;47.384;8.860;2023-04-03T08:57:23;95070.13;;;-0.36;49.05
74921;BME280;63483;47.384;8.860;2023-04-03T08:59:51;95082.59;;;-0.17;49.31
74921;BME280;63483;47.384;8.860;2023-04-03T09:02:31;95078.78;;;0.02;49.09
74921;BME280;63483;47.384;8.860;2023-04-03T09:04:58;95078.16;;;0.11;50.28
74921;BME280;63483;47.384;8.860;2023-04-03T09:07:42;95082.47;;;-0.15;50.67
74921;BME280;63483;47.384;8.860;2023-04-03T09:10:11;95083.56;;;0.32;49.72
74921;BME280;63483;47.384;8.860;2023-04-03T09:12:39;95075.69;;;0.23;49.24
74921;BME280;63483;47.384;8.860;2023-04-03T09:20:41;95080.31;;;0.91;48.45
74921;BME280;63483;47.384;8.860;2023-04-03T09:23:30;95077.13;;;1.12;47.58
74921;BME280;63483;47.384;8.860;2023-04-03T09:26:08;95078.72;;;1.02;47.67
74921;BME280;63483;47.384;8.860;2023-04-03T09:28:38;95079.16;;;1.20;47.51
74921;BME280;63483;47.384;8.860;2023-04-03T09:31:38;95077.47;;;1.07;47.67
74921;BME280;63483;47.384;8.860;2023-04-03T09:34:25;95076.72;;;1.30;46.40
74921;BME280;63483;47.384;8.860;2023-04-03T09:36:54;95080.06;;;1.43;46.81
74921;BME280;63483;47.384;8.860;2023-04-03T09:39:26;95074.91;;;1.43;45.94
74921;BME280;63483;47.384;8.860;2023-04-03T09:44:34;95082.66;;;1.43;47.10
74921;BME280;63483;47.384;8.860;2023-04-03T09:47:18;95086.69;;;1.58;46.74
74921;BME280;63483;47.384;8.860;2023-04-03T09:49:45;95076.59;;;1.55;46.48
74921;BME280;63483;47.384;8.860;2023-04-03T09:52:23;95079.44;;;1.64;46.35
74921;BME280;63483;47.384;8.860;2023-04-03T09:54:49;95082.00;;;1.52;46.00
74921;BME280;63483;47.384;8.860;2023-04-03T09:57:15;95077.63;;;1.17;46.87
74921;BME280;63483;47.384;8.860;2023-04-03T09:59:46;95072.50;;;1.53;46.60
74921;BME280;63483;47.384;8.860;2023-04-03T10:04:41;95078.28;;;1.43;47.16
74921;BME280;63483;47.384;8.860;2023-04-03T10:07:31;95070.59;;;1.19;47.51
74921;BME280;63483;47.384;8.860;2023-04-03T10:10:14;95069.75;;;1.43;47.84
74921;BME280;63483;47.384;8.860;2023-04-03T10:12:40;95063.13;;;1.27;47.26
74921;BME280;63483;47.384;8.860;2023-04-03T10:15:36;95072.84;;;1.59;47.39
74921;BME280;63483;47.384;8.860;2023-04-03T10:18:18;95073.44;;;1.27;47.95
74921;BME280;63483;47.384;8.860;2023-04-03T10:20:52;95074.78;;;1.09;45.32
74921;BME280;63483;47.384;8.860;2023-04-03T10:23:47;95073.91;;;0.73;46.88
74921;BME280;63483;47.384;8.860;2023-04-03T10:26:34;95063.16;;;0.79;43.08
74921;BME280;63483;47.384;8.860;2023-04-03T10:29:16;95065.88;;;0.65;45.80
74921;BME280;63483;47.384;8.860;2023-04-03T10:31:59;95059.91;;;0.88;47.69
74921;BME280;63483;47.384;8.860;2023-04-03T10:34:35;95064.63;;;0.70;49.02
74921;BME280;63483;47.384;8.860;2023-04-03T10:37:26;95061.22;;;0.70;48.76
74921;BME280;63483;47.384;8.860;2023-04-03T10:42:55;95057.91;;;0.68;46.64
74921;BME280;63483;47.384;8.860;2023-04-03T10:45:31;95061.22;;;0.33;49.43
74921;BME280;63483;47.384;8.860;2023-04-03T10:51:16;95062.03;;;0.46;46.07
74921;BME280;63483;47.384;8.860;2023-04-03T10:56:50;95057.69;;;0.34;50.29
74921;BME280;63483;47.384;8.860;2023-04-03T10:59:28;95059.34;;;0.35;49.09
74921;BME280;63483;47.384;8.860;2023-04-03T11:02:04;95058.34;;;0.25;50.64
74921;BME280;63483;47.384;8.860;2023-04-03T11:04:35;95049.69;;;0.26;49.52
74921;BME280;63483;47.384;8.860;2023-04-03T11:07:11;95048.91;;;0.49;48.93
74921;BME280;63483;47.384;8.860;2023-04-03T11:09:41;95043.56;;;0.77;49.82
74921;BME280;63483;47.384;8.860;2023-04-03T11:12:36;95051.19;;;0.78;47.83
74921;BME280;63483;47.384;8.860;2023-04-03T11:15:11;95052.28;;;0.63;46.91
74921;BME280;63483;47.384;8.860;2023-04-03T11:17:40;95041.63;;;0.43;50.16
74921;BME280;63483;47.384;8.860;2023-04-03T11:20:22;95046.78;;;0.43;49.33
74921;BME280;63483;47.384;8.860;2023-04-03T11:23:25;95039.50;;;0.61;49.68
74921;BME280;63483;47.384;8.860;2023-04-03T11:25:54;95034.72;;;0.68;50.18
74921;BME280;63483;47.384;8.860;2023-04-03T11:28:21;95032.41;;;0.76;49.33
74921;BME280;63483;47.384;8.860;2023-04-03T11:31:13;95039.00;;;0.80;48.58
74921;BME280;63483;47.384;8.860;2023-04-03T11:36:30;95033.09;;;1.02;49.95
74921;BME280;63483;47.384;8.860;2023-04-03T11:39:00;95035.00;;;0.76;49.59
74921;BME280;63483;47.384;8.860;2023-04-03T11:41:31;95019.47;;;0.65;50.18
74921;BME280;63483;47.384;8.860;2023-04-03T11:44:04;95034.28;;;0.74;49.28
74921;BME280;63483;47.384;8.860;2023-04-03T11:46:50;95030.94;;;0.85;49.36
74921;BME280;63483;47.384;8.860;2023-04-03T11:49:50;95031.69;;;0.98;49.40
74921;BME280;63483;47.384;8.860;2023-04-03T12:08:46;95009.13;;;1.24;48.34
74921;BME280;63483;47.384;8.860;2023-04-03T12:27:01;95017.22;;;1.55;47.44
74921;BME280;63483;47.384;8.860;2023-04-03T12:29:43;95021.09;;;1.61;47.38
74921;BME280;63483;47.384;8.860;2023-04-03T12:40:57;95010.59;;;1.40;48.31
74921;BME280;63483;47.384;8.860;2023-04-03T12:46:16;95004.53;;;1.52;47.26
74921;BME280;63483;47.384;8.860;2023-04-03T12:51:14;95006.66;;;1.58;47.66
74921;BME280;63483;47.384;8.860;2023-04-03T12:53:42;95007.25;;;1.73;47.62
74921;BME280;63483;47.384;8.860;2023-04-03T12:56:22;95001.72;;;1.44;47.99
74921;BME280;63483;47.384;8.860;2023-04-03T12:58:50;95005.63;;;1.72;46.71
74921;BME280;63483;47.384;8.860;2023-04-03T13:01:20;94995.09;;;1.87;47.49
74921;BME280;63483;47.384;8.860;2023-04-03T13:03:52;94997.28;;;2.03;46.35
74921;BME280;63483;47.384;8.860;2023-04-03T13:06:22;94998.94;;;2.15;46.25
74921;BME280;63483;47.384;8.860;2023-04-03T13:08:54;95003.16;;;2.16;46.34
74921;BME280;63483;47.384;8.860;2023-04-03T13:11:20;94994.25;;;1.98;46.76
74921;BME280;63483;47.384;8.860;2023-04-03T13:13:56;94989.91;;;1.98;44.62
74921;BME280;63483;47.384;8.860;2023-04-03T13:16:22;94989.09;;;1.98;46.72
74921;BME280;63483;47.384;8.860;2023-04-03T13:18:52;94989.06;;;1.86;47.00
74921;BME280;63483;47.384;8.860;2023-04-03T13:21:20;94991.81;;;1.38;47.05
74921;BME280;63483;47.384;8.860;2023-04-03T13:23:49;94990.94;;;1.95;46.97
74921;BME280;63483;47.384;8.860;2023-04-03T13:26:16;94991.41;;;1.67;45.23
74921;BME280;63483;47.384;8.860;2023-04-03T13:28:43;94991.81;;;1.38;47.98
74921;BME280;63483;47.384;8.860;2023-04-03T13:33:42;94983.88;;;1.52;45.94
74921;BME280;63483;47.384;8.860;2023-04-03T13:36:20;94991.41;;;1.55;46.25
74921;BME280;63483;47.384;8.860;2023-04-03T13:38:58;94986.69;;;1.49;45.62
74921;BME280;63483;47.384;8.860;2023-04-03T13:41:30;94977.31;;;1.48;44.14
74921;BME280;63483;47.384;8.860;2023-04-03T13:43:56;94976.25;;;1.51;42.46
74921;BME280;63483;47.384;8.860;2023-04-03T13:46:27;94977.16;;;1.38;45.46
74921;BME280;63483;47.384;8.860;2023-04-03T13:48:54;94977.69;;;1.19;47.03
74921;BME280;63483;47.384;8.860;2023-04-03T13:51:30;94972.78;;;1.16;45.35
74921;BME280;63483;47.384;8.860;2023-04-03T13:54:17;94981.28;;;1.41;47.03
74921;BME280;63483;47.384;8.860;2023-04-03T13:56:44;94973.22;;;1.46;46.17
74921;BME280;63483;47.384;8.860;2023-04-03T14:04:19;94971.09;;;1.51;45.31
74921;BME280;63483;47.384;8.860;2023-04-03T14:06:46;94966.06;;;1.49;45.88
74921;BME280;63483;47.384;8.860;2023-04-03T14:09:12;94972.81;;;1.39;46.26
74921;BME280;63483;47.384;8.860;2023-04-03T14:11:38;94967.94;;;1.58;54.41
74921;BME280;63483;47.384;8.860;2023-04-03T14:14:20;94977.81;;;1.87;46.70
74921;BME280;63483;47.384;8.860;2023-04-03T14:16:50;94970.53;;;1.70;45.72
74921;BME280;63483;47.384;8.860;2023-04-03T14:19:33;94966.66;;;1.64;46.01
74921;BME280;63483;47.384;8.860;2023-04-03T14:22:05;94962.75;;;1.58;45.74
74921;BME280;63483;47.384;8.860;2023-04-03T14:24:32;94959.94;;;2.07;44.94
74921;BME280;63483;47.384;8.860;2023-04-03T14:26:57;94960.41;;;1.89;45.78
74921;BME280;63483;47.384;8.860;2023-04-03T14:29:23;94961.13;;;1.80;44.90
74921;BME280;63483;47.384;8.860;2023-04-03T14:31:49;94950.09;;;2.12;44.34
74921;BME280;63483;47.384;8.860;2023-04-03T14:34:15;94957.78;;;2.23;44.60
74921;BME280;63483;47.384;8.860;2023-04-03T14:36:42;94955.81;;;2.27;43.50
74921;BME280;63483;47.384;8.860;2023-04-03T14:39:11;94949.56;;;2.29;43.95
74921;BME280;63483;47.384;8.860;2023-04-03T14:41:41;94941.63;;;2.10;42.85
74921;BME280;63483;47.384;8.860;2023-04-03T14:44:07;94939.94;;;2.31;42.37
74921;BME280;63483;47.384;8.860;2023-04-03T14:46:36;94942.78;;;2.17;43.14